Time;durP1;ratioP1;P1;durP2;ratioP2;P2;SDS_P1;SDS_P2;PMS_P1;PMS_P2;Temp;Humidity;BMP_temperature;BMP_pressure;BME280_temperature;BME280_humidity;BME280_pressure;Samples;Min_cycle;Max_cycle;Signal;HPM_P1;HPM_P2
2021/12/09 00:01:06;;;;;;;23.33;11.02;;;4.00;99.90;;;;;;5075872;28;20032;-74
2021/12/09 00:03:36;;;;;;;24.63;11.68;;;4.00;99.90;;;;;;5075789;28;20450;-74
2021/12/09 00:06:04;;;;;;;20.20;11.70;;;4.00;99.90;;;;;;5075754;28;20468;-74
2021/12/09 00:08:30;;;;;;;24.75;11.88;;;3.90;99.90;;;;;;5075676;28;20070;-74
2021/12/09 00:11:00;;;;;;;23.40;11.27;;;3.90;99.90;;;;;;5075578;28;20035;-74
2021/12/09 00:13:27;;;;;;;20.13;11.05;;;3.90;99.90;;;;;;5075563;28;20032;-74
2021/12/09 00:15:54;;;;;;;26.63;12.23;;;3.90;99.90;;;;;;5075236;28;20042;-74
2021/12/09 00:18:19;;;;;;;21.25;10.27;;;3.90;99.90;;;;;;5074282;28;20424;-74
2021/12/09 00:20:46;;;;;;;19.65;11.32;;;3.90;99.90;;;;;;5091048;28;20124;-74
2021/12/09 00:23:12;;;;;;;21.20;11.60;;;3.90;99.90;;;;;;5075369;28;20469;-74
2021/12/09 00:25:38;;;;;;;26.92;11.35;;;3.90;99.90;;;;;;5073928;28;20032;-74
2021/12/09 00:28:04;;;;;;;19.20;10.10;;;3.90;99.90;;;;;;5073870;28;20025;-74
2021/12/09 00:30:31;;;;;;;23.27;11.25;;;3.90;99.90;;;;;;5074096;28;20442;-74
2021/12/09 00:32:58;;;;;;;20.52;10.27;;;3.90;99.90;;;;;;5074891;28;20025;-74
2021/12/09 00:35:30;;;;;;;19.30;10.07;;;3.80;99.90;;;;;;5073579;28;20479;-74
2021/12/09 00:38:01;;;;;;;21.38;10.82;;;3.80;99.90;;;;;;5090194;28;20032;-74
2021/12/09 00:40:27;;;;;;;19.35;10.18;;;3.90;99.90;;;;;;5073634;28;20461;-74
2021/12/09 00:42:53;;;;;;;19.10;10.10;;;3.80;99.90;;;;;;5073593;28;20373;-74
2021/12/09 00:45:18;;;;;;;20.70;9.35;;;3.80;99.90;;;;;;5057040;28;20034;-74
2021/12/09 00:47:44;;;;;;;21.23;9.68;;;3.80;99.90;;;;;;5073771;28;20029;-73
2021/12/09 00:50:11;;;;;;;20.55;9.50;;;3.80;99.90;;;;;;5073403;28;20031;-74
2021/12/09 00:52:36;;;;;;;21.83;10.73;;;3.80;99.90;;;;;;5089702;28;20037;-74
2021/12/09 00:55:04;;;;;;;28.58;11.23;;;3.80;99.90;;;;;;5072947;28;20021;-74
2021/12/09 00:57:30;;;;;;;23.55;10.10;;;3.80;99.90;;;;;;5089777;28;20059;-74
2021/12/09 00:59:55;;;;;;;27.33;11.75;;;3.80;99.90;;;;;;5089741;28;20052;-74
2021/12/09 01:02:21;;;;;;;22.65;10.18;;;3.80;99.90;;;;;;5056215;28;20032;-74
2021/12/09 01:04:47;;;;;;;20.38;10.00;;;3.90;99.90;;;;;;5056149;28;20051;-74
2021/12/09 01:07:13;;;;;;;20.38;9.30;;;4.10;99.90;;;;;;5073134;28;20032;-74
2021/12/09 01:09:39;;;;;;;23.02;8.82;;;4.20;99.90;;;;;;5056958;28;20024;-74
2021/12/09 01:12:06;;;;;;;17.70;8.90;;;4.20;99.90;;;;;;5074382;28;20028;-74
2021/12/09 01:14:32;;;;;;;19.13;7.78;;;4.30;99.90;;;;;;5089553;28;20123;-74
2021/12/09 01:16:58;;;;;;;19.15;7.50;;;4.40;99.90;;;;;;5074104;28;20021;-74
2021/12/09 01:19:24;;;;;;;20.02;7.22;;;4.40;99.90;;;;;;5089462;28;20115;-74
2021/12/09 01:21:50;;;;;;;22.60;7.70;;;4.40;99.90;;;;;;5074088;28;20100;-74
2021/12/09 01:24:16;;;;;;;16.50;7.30;;;4.50;99.90;;;;;;5073732;28;20385;-74
2021/12/09 01:26:41;;;;;;;17.92;7.70;;;4.60;99.90;;;;;;5073991;28;20378;-73
2021/12/09 01:29:15;;;;;;;17.80;7.10;;;4.70;99.90;;;;;;5072584;28;20032;-73
2021/12/09 01:31:43;;;;;;;19.08;6.43;;;4.70;99.90;;;;;;5074155;28;20031;-74
2021/12/09 01:34:09;;;;;;;14.43;6.32;;;4.70;99.90;;;;;;5089221;28;20069;-74
2021/12/09 01:36:36;;;;;;;11.85;6.07;;;4.70;99.90;;;;;;5074154;28;20103;-74
2021/12/09 01:39:05;;;;;;;21.90;8.05;;;4.70;99.90;;;;;;5072321;28;20021;-74
2021/12/09 01:41:31;;;;;;;19.52;7.03;;;4.70;99.90;;;;;;5072681;28;20024;-73
2021/12/09 01:43:57;;;;;;;17.83;7.05;;;4.80;99.90;;;;;;5072623;28;20378;-73
2021/12/09 01:46:22;;;;;;;16.10;6.38;;;4.80;99.90;;;;;;5072451;28;20058;-74
2021/12/09 01:48:50;;;;;;;15.52;6.55;;;4.80;99.90;;;;;;5072886;28;20024;-74
2021/12/09 01:51:16;;;;;;;20.35;7.32;;;4.80;99.90;;;;;;5072224;28;20536;-74
2021/12/09 01:53:43;;;;;;;19.00;6.78;;;4.80;99.90;;;;;;5055744;28;20074;-74
2021/12/09 01:56:11;;;;;;;22.90;7.13;;;4.90;99.90;;;;;;5088995;28;20021;-74
2021/12/09 01:58:38;;;;;;;15.75;7.25;;;4.90;99.90;;;;;;5055470;28;20024;-73
2021/12/09 02:01:05;;;;;;;16.00;7.75;;;4.80;99.90;;;;;;5088952;28;20078;-74
2021/12/09 02:03:32;;;;;;;16.92;7.78;;;4.80;99.90;;;;;;5072746;28;20082;-74
2021/12/09 02:05:58;;;;;;;17.23;6.90;;;4.80;99.90;;;;;;5088913;28;20032;-74
2021/12/09 02:08:24;;;;;;;12.50;6.50;;;4.80;99.90;;;;;;5072394;28;20048;-74
2021/12/09 02:10:52;;;;;;;18.65;7.20;;;4.70;99.90;;;;;;5055253;28;20123;-74
2021/12/09 02:13:19;;;;;;;20.42;6.43;;;4.70;99.90;;;;;;5088831;28;20494;-74
2021/12/09 02:15:45;;;;;;;13.50;6.47;;;4.70;99.90;;;;;;5072366;28;20031;-73
2021/12/09 02:18:13;;;;;;;15.20;6.47;;;4.70;99.90;;;;;;5073806;28;20020;-74
2021/12/09 02:20:40;;;;;;;15.38;6.45;;;4.70;99.90;;;;;;5055275;28;20027;-73
2021/12/09 02:23:10;;;;;;;16.50;7.43;;;4.80;99.90;;;;;;5072714;28;20032;-74
2021/12/09 02:25:37;;;;;;;13.82;6.15;;;4.80;99.90;;;;;;5073407;28;20108;-74
2021/12/09 02:28:03;;;;;;;13.02;6.57;;;4.80;99.90;;;;;;5072659;28;20025;-73
2021/12/09 02:30:29;;;;;;;17.95;6.53;;;4.80;99.90;;;;;;5072209;28;20074;-73
2021/12/09 02:32:55;;;;;;;16.42;6.40;;;4.80;99.90;;;;;;5055848;28;20071;-74
2021/12/09 02:35:21;;;;;;;16.27;6.45;;;4.80;99.90;;;;;;5055139;28;20048;-73
2021/12/09 02:37:48;;;;;;;14.48;6.20;;;4.90;99.90;;;;;;5055084;28;20048;-73
2021/12/09 02:40:14;;;;;;;16.45;5.60;;;4.90;99.90;;;;;;5073543;28;20457;-74
2021/12/09 02:42:40;;;;;;;11.30;5.60;;;4.90;99.90;;;;;;5072062;28;20024;-74
2021/12/09 02:45:08;;;;;;;16.15;5.57;;;4.90;99.90;;;;;;5073495;28;20081;-73
2021/12/09 02:47:34;;;;;;;16.50;5.53;;;4.90;99.90;;;;;;5073468;28;20048;-74
2021/12/09 02:50:00;;;;;;;15.27;5.90;;;4.90;99.90;;;;;;5054931;28;20063;-74
2021/12/09 02:52:26;;;;;;;17.70;5.70;;;4.90;99.90;;;;;;5088270;28;20097;-73
2021/12/09 02:54:52;;;;;;;13.60;6.00;;;4.90;99.90;;;;;;5073379;28;20028;-74
2021/12/09 02:57:18;;;;;;;12.98;5.22;;;4.80;99.90;;;;;;5071655;28;20051;-73
2021/12/09 02:59:44;;;;;;;13.20;5.47;;;4.80;99.90;;;;;;5074518;28;20511;-73
2021/12/09 03:02:11;;;;;;;13.32;5.18;;;4.80;99.90;;;;;;5075496;28;20029;-73
2021/12/09 03:07:36;;;;;;;15.23;5.22;;;4.80;99.90;;;;;;5112225;27;20911;-74
2021/12/09 03:10:10;;;;;;;15.25;6.05;;;4.80;99.90;;;;;;5093624;28;20453;-73
2021/12/09 03:12:40;;;;;;;18.08;5.47;;;4.70;99.90;;;;;;5110059;28;20456;-74
2021/12/09 03:15:07;;;;;;;13.20;5.07;;;4.70;99.90;;;;;;5094156;28;20020;-73
2021/12/09 03:17:33;;;;;;;15.88;5.15;;;4.80;99.90;;;;;;5111816;28;20024;-72
2021/12/09 03:19:59;;;;;;;18.10;5.55;;;4.70;99.90;;;;;;5111497;28;20019;-73
2021/12/09 03:22:25;;;;;;;13.45;5.00;;;4.70;99.90;;;;;;5110271;28;20028;-73
2021/12/09 03:24:51;;;;;;;16.90;5.45;;;4.60;99.90;;;;;;5092863;28;20481;-73
2021/12/09 03:27:17;;;;;;;15.75;5.20;;;4.50;99.90;;;;;;5110641;28;20119;-74
2021/12/09 03:29:43;;;;;;;14.05;4.72;;;4.40;99.90;;;;;;5110390;28;20516;-74
2021/12/09 03:32:15;;;;;;;9.82;4.70;;;4.30;99.90;;;;;;5111519;28;20028;-74
2021/12/09 03:34:42;;;;;;;21.80;6.63;;;4.00;99.90;;;;;;5092747;28;20047;-74
2021/12/09 03:37:11;;;;;;;11.35;4.85;;;3.90;99.90;;;;;;5110879;28;20473;-75
2021/12/09 03:39:40;;;;;;;13.55;5.43;;;3.70;99.90;;;;;;5110858;28;20031;-74
2021/12/09 03:42:07;;;;;;;18.63;5.82;;;3.60;99.90;;;;;;5092603;28;20036;-74
2021/12/09 03:44:33;;;;;;;13.93;5.22;;;3.50;99.90;;;;;;5110953;28;20037;-75
2021/12/09 03:47:02;;;;;;;12.73;5.25;;;3.30;99.90;;;;;;5109458;28;20032;-75
2021/12/09 03:49:27;;;;;;;9.88;5.57;;;3.20;99.90;;;;;;5109788;28;20020;-75
2021/12/09 03:51:56;;;;;;;11.93;5.10;;;3.10;99.90;;;;;;5092394;28;20362;-74
2021/12/09 03:54:22;;;;;;;16.30;5.95;;;3.10;99.90;;;;;;5109250;28;20107;-74
2021/12/09 03:56:47;;;;;;;10.75;5.60;;;3.10;99.90;;;;;;5109814;28;20065;-74
2021/12/09 03:59:13;;;;;;;17.02;5.93;;;3.10;99.90;;;;;;5110469;28;20020;-74
2021/12/09 04:01:41;;;;;;;10.95;5.25;;;3.00;99.90;;;;;;5109496;28;20028;-74
2021/12/09 04:04:07;;;;;;;10.95;5.45;;;2.90;99.90;;;;;;5110644;28;20350;-74
2021/12/09 04:06:34;;;;;;;10.02;5.95;;;2.80;99.90;;;;;;5108838;28;20047;-74
2021/12/09 04:09:00;;;;;;;22.33;6.85;;;2.70;99.90;;;;;;5092215;28;20380;-75
2021/12/09 04:11:27;;;;;;;16.52;6.40;;;2.60;99.90;;;;;;5110561;28;20107;-74
2021/12/09 04:13:54;;;;;;;16.50;6.32;;;;;;;;;;5109280;28;20472;-74
2021/12/09 04:16:20;;;;;;;13.68;6.70;;;2.30;99.90;;;;;;5110451;28;20093;-74
2021/12/09 04:18:46;;;;;;;14.18;6.22;;;2.40;99.90;;;;;;5094664;28;20028;-75
2021/12/09 04:21:12;;;;;;;17.90;5.90;;;2.40;99.90;;;;;;5097007;28;20032;-75
2021/12/09 04:23:39;;;;;;;19.45;7.05;;;2.40;99.90;;;;;;5095299;28;20069;-75
2021/12/09 04:26:04;;;;;;;12.65;6.22;;;2.40;99.90;;;;;;5095633;28;20031;-75
2021/12/09 04:28:30;;;;;;;14.55;5.90;;;2.30;99.90;;;;;;5096880;28;20020;-75
2021/12/09 04:30:56;;;;;;;13.30;6.20;;;2.30;99.90;;;;;;5095410;28;20030;-75
2021/12/09 04:33:22;;;;;;;11.57;5.70;;;2.30;99.90;;;;;;5096248;28;20384;-73
2021/12/09 04:35:47;;;;;;;13.38;6.28;;;2.30;99.90;;;;;;5095013;28;20035;-74
2021/12/09 04:38:13;;;;;;;12.95;5.75;;;2.10;99.90;;;;;;5095228;28;20111;-74
2021/12/09 04:40:39;;;;;;;13.18;5.68;;;2.10;99.90;;;;;;5095203;28;20064;-74
2021/12/09 04:43:04;;;;;;;13.20;5.97;;;2.00;99.90;;;;;;5077955;28;20051;-73
2021/12/09 04:45:34;;;;;;;13.95;5.80;;;1.90;99.90;;;;;;5094640;28;20491;-74
2021/12/09 04:48:00;;;;;;;14.57;6.50;;;1.90;99.90;;;;;;5078383;28;20065;-74
2021/12/09 04:50:27;;;;;;;14.60;5.53;;;1.80;99.90;;;;;;5096197;28;20027;-74
2021/12/09 04:52:53;;;;;;;14.90;6.38;;;1.70;99.90;;;;;;5078768;28;20024;-73
2021/12/09 04:55:19;;;;;;;18.25;5.60;;;;;;;;;;5077683;28;20537;-72
2021/12/09 04:57:45;;;;;;;14.45;6.47;;;1.50;99.90;;;;;;5094881;28;20106;-73
2021/12/09 05:00:16;;;;;;;11.38;5.55;;;1.30;99.90;;;;;;5095980;28;20109;-73
2021/12/09 05:03:13;;;;;;;12.52;6.68;;;1.30;99.90;;;;;;5077867;28;20078;-73
2021/12/09 05:05:32;;;;;;;13.40;6.13;;;1.20;99.90;;;;;;5094242;28;20131;-73
2021/12/09 05:07:58;;;;;;;17.42;7.30;;;1.10;99.90;;;;;;5094329;28;20027;-73
2021/12/09 05:10:23;;;;;;;15.75;6.35;;;1.10;99.90;;;;;;5094372;28;20381;-73
2021/12/09 05:12:49;;;;;;;16.90;7.20;;;1.10;99.90;;;;;;5094303;28;20052;-73
2021/12/09 05:15:15;;;;;;;19.08;7.45;;;1.10;99.90;;;;;;5095719;28;20024;-73
2021/12/09 05:17:40;;;;;;;16.92;7.80;;;1.10;99.90;;;;;;5095895;28;20453;-73
2021/12/09 05:20:07;;;;;;;14.80;7.43;;;1.10;99.90;;;;;;5095877;28;20028;-73
2021/12/09 05:22:32;;;;;;;17.05;8.18;;;1.10;99.90;;;;;;5077988;28;20030;-73
2021/12/09 05:24:58;;;;;;;22.30;9.07;;;1.10;99.90;;;;;;5094544;28;20114;-73
2021/12/09 05:27:24;;;;;;;13.93;7.65;;;1.10;99.90;;;;;;5095745;28;20082;-73
2021/12/09 05:30:03;;;;;;;18.42;8.30;;;1.20;99.90;;;;;;5075995;28;20017;-73
2021/12/09 05:32:30;;;;;;;16.00;8.63;;;1.10;99.90;;;;;;5094639;28;20033;-73
2021/12/09 05:34:56;;;;;;;18.90;7.93;;;1.00;99.90;;;;;;5093875;28;20411;-73
2021/12/09 05:37:24;;;;;;;18.48;8.20;;;1.00;99.90;;;;;;5093732;28;20027;-73
2021/12/09 05:39:52;;;;;;;17.08;8.20;;;0.90;99.90;;;;;;5077021;28;20020;-73
2021/12/09 05:42:20;;;;;;;16.33;7.93;;;0.80;99.90;;;;;;5094265;28;20016;-73
2021/12/09 05:44:46;;;;;;;16.65;7.78;;;0.80;99.90;;;;;;5095397;28;20063;-73
2021/12/09 05:47:12;;;;;;;19.77;8.60;;;0.70;99.90;;;;;;5076686;28;20028;-73
2021/12/09 05:49:41;;;;;;;21.33;7.90;;;0.70;99.90;;;;;;5094150;28;20542;-73
2021/12/09 05:52:07;;;;;;;17.80;8.43;;;0.70;99.90;;;;;;5094961;28;20092;-73
2021/12/09 05:54:34;;;;;;;16.38;8.77;;;0.70;99.90;;;;;;5076481;28;20461;-73
2021/12/09 05:56:59;;;;;;;17.67;8.25;;;0.70;99.90;;;;;;5094180;28;20030;-73
2021/12/09 05:59:25;;;;;;;28.77;9.70;;;0.60;99.90;;;;;;5093600;28;20388;-73
2021/12/09 06:01:51;;;;;;;21.58;10.02;;;0.70;99.90;;;;;;5076349;28;20073;-73
2021/12/09 06:04:17;;;;;;;23.75;11.10;;;0.60;99.90;;;;;;5095030;28;20407;-73
2021/12/09 06:06:43;;;;;;;22.52;9.82;;;0.60;99.90;;;;;;5092891;28;20374;-73
2021/12/09 06:09:10;;;;;;;22.25;9.20;;;0.60;99.90;;;;;;5093929;28;20028;-72
2021/12/09 06:11:39;;;;;;;17.08;8.00;;;0.50;99.90;;;;;;5093050;28;20020;-73
2021/12/09 06:14:06;;;;;;;17.75;8.55;;;0.50;99.90;;;;;;5094782;28;20106;-73
2021/12/09 06:16:33;;;;;;;23.52;8.45;;;0.50;99.90;;;;;;5077067;28;20027;-72
2021/12/09 06:19:00;;;;;;;15.93;7.72;;;0.50;99.90;;;;;;5076770;28;20032;-73
2021/12/09 06:21:27;;;;;;;14.50;7.95;;;0.40;99.90;;;;;;5075998;28;20039;-73
2021/12/09 06:23:54;;;;;;;15.40;7.80;;;0.40;99.90;;;;;;5076209;28;20473;-73
2021/12/09 06:26:21;;;;;;;17.67;7.82;;;0.40;99.90;;;;;;5092724;28;20497;-73
2021/12/09 06:28:46;;;;;;;19.80;8.85;;;0.30;99.90;;;;;;5094307;28;20462;-72
2021/12/09 06:31:13;;;;;;;19.85;8.15;;;0.30;99.90;;;;;;5093094;28;20031;-72
2021/12/09 06:33:39;;;;;;;16.45;7.72;;;0.20;99.90;;;;;;5092697;28;20057;-72
2021/12/09 06:36:05;;;;;;;16.67;7.38;;;0.20;99.90;;;;;;5094171;28;20400;-73
2021/12/09 06:38:31;;;;;;;13.88;7.70;;;0.20;99.90;;;;;;5075701;28;20048;-73
2021/12/09 06:40:57;;;;;;;19.27;7.13;;;0.20;99.90;;;;;;5092705;28;20065;-73
2021/12/09 06:43:23;;;;;;;20.10;7.97;;;0.10;99.90;;;;;;5092964;28;20024;-72
2021/12/09 06:45:49;;;;;;;17.92;8.40;;;0.10;99.90;;;;;;5092703;28;20472;-73
2021/12/09 06:48:14;;;;;;;19.52;8.23;;;0.10;99.90;;;;;;5094232;28;20023;-73
2021/12/09 06:50:40;;;;;;;21.45;8.77;;;0.10;99.90;;;;;;5093980;28;20024;-73
2021/12/09 06:53:08;;;;;;;23.02;10.40;;;0.10;99.90;;;;;;5092758;28;20425;-73
2021/12/09 06:55:35;;;;;;;22.25;10.77;;;0.10;99.90;;;;;;5092433;28;20030;-73
2021/12/09 06:58:00;;;;;;;27.58;11.80;;;0.00;99.90;;;;;;5092372;28;20077;-72
2021/12/09 07:00:30;;;;;;;29.60;12.13;;;0.00;99.90;;;;;;5092149;28;20032;-72
2021/12/09 07:02:56;;;;;;;22.40;10.60;;;0.00;99.90;;;;;;5092646;28;20169;-72
2021/12/09 07:05:24;;;;;;;28.30;11.73;;;0.00;99.90;;;;;;5092641;28;20127;-73
2021/12/09 07:07:50;;;;;;;19.85;10.82;;;-0.10;99.90;;;;;;5092523;28;20048;-72
2021/12/09 07:10:16;;;;;;;30.98;12.73;;;-0.10;99.90;;;;;;5075429;28;20464;-73
2021/12/09 07:12:42;;;;;;;24.45;11.85;;;-0.10;99.90;;;;;;5092343;28;20503;-73
2021/12/09 07:15:10;;;;;;;22.35;12.32;;;-0.10;99.90;;;;;;5092461;28;20087;-73
2021/12/09 07:17:36;;;;;;;19.00;10.90;;;-0.20;99.90;;;;;;5075691;28;20032;-73
2021/12/09 07:20:06;;;;;;;28.30;11.25;;;-0.20;99.90;;;;;;5091944;28;20029;-73
2021/12/09 07:22:31;;;;;;;25.92;11.23;;;-0.20;99.90;;;;;;5075163;28;20023;-73
2021/12/09 07:24:57;;;;;;;29.17;11.02;;;-0.10;99.90;;;;;;5074975;28;20381;-73
2021/12/09 07:27:22;;;;;;;29.33;11.65;;;0.00;99.90;;;;;;5074741;28;20047;-72
2021/12/09 07:29:48;;;;;;;32.25;12.48;;;0.10;99.90;;;;;;5091959;28;20031;-72
2021/12/09 07:32:14;;;;;;;30.73;12.25;;;0.20;99.90;;;;;;5089075;28;20473;-72
2021/12/09 07:34:39;;;;;;;27.80;13.23;;;0.30;99.90;;;;;;5088284;28;20016;-72
2021/12/09 07:37:05;;;;;;;28.33;13.30;;;0.40;99.90;;;;;;5080268;28;20028;-72
2021/12/09 07:39:33;;;;;;;42.97;17.88;;;0.50;99.90;;;;;;5089884;28;20028;-72
2021/12/09 07:41:59;;;;;;;46.58;22.38;;;0.60;99.90;;;;;;5101620;28;20029;-72
2021/12/09 07:44:27;;;;;;;51.00;28.48;;;0.60;99.90;;;;;;5092075;28;20103;-72
2021/12/09 07:46:54;;;;;;;60.90;31.42;;;0.70;99.90;;;;;;5072788;28;20032;-72
2021/12/09 07:49:21;;;;;;;60.20;31.48;;;0.80;99.90;;;;;;5082914;28;20488;-72
2021/12/09 07:51:48;;;;;;;59.53;31.52;;;0.80;99.90;;;;;;5087889;28;20017;-72
2021/12/09 07:54:14;;;;;;;48.80;25.52;;;0.90;99.90;;;;;;5083062;28;20024;-72
2021/12/09 07:56:39;;;;;;;47.05;21.35;;;1.00;99.90;;;;;;5088397;28;20021;-72
2021/12/09 07:59:05;;;;;;;37.80;19.13;;;1.20;99.90;;;;;;5075492;28;20373;-73
2021/12/09 08:01:30;;;;;;;38.63;18.58;;;1.30;99.90;;;;;;5105639;28;20040;-73
2021/12/09 08:03:56;;;;;;;34.03;18.52;;;1.40;99.90;;;;;;5081255;28;20024;-73
2021/12/09 08:06:22;;;;;;;36.35;20.58;;;1.50;99.90;;;;;;5077031;28;20048;-73
2021/12/09 08:08:48;;;;;;;35.42;19.83;;;1.60;99.90;;;;;;5092070;28;20025;-74
2021/12/09 08:11:14;;;;;;;30.65;17.55;;;1.70;99.90;;;;;;5080243;28;20055;-74
2021/12/09 08:13:39;;;;;;;34.40;17.67;;;1.80;99.90;;;;;;5075658;28;20032;-75
2021/12/09 08:16:05;;;;;;;39.63;18.20;;;2.10;99.90;;;;;;5076551;28;20086;-74
2021/12/09 08:18:43;;;;;;;37.92;18.38;;;2.60;99.90;;;;;;5074006;28;20025;-74
2021/12/09 08:21:08;;;;;;;31.83;16.48;;;3.70;99.90;;;;;;5076268;28;20028;-74
2021/12/09 08:23:34;;;;;;;30.00;13.02;;;4.00;99.90;;;;;;5094806;28;20032;-75
2021/12/09 08:25:59;;;;;;;21.42;9.98;;;4.30;99.90;;;;;;5093317;28;20035;-74
2021/12/09 08:28:27;;;;;;;19.27;10.20;;;4.60;99.90;;;;;;5074894;28;20016;-75
2021/12/09 08:30:53;;;;;;;28.45;10.30;;;4.60;99.90;;;;;;5080778;28;20016;-74
2021/12/09 08:33:20;;;;;;;23.08;9.75;;;4.50;99.90;;;;;;5078085;28;20055;-75
2021/12/09 08:35:46;;;;;;;22.88;9.07;;;4.60;99.90;;;;;;5085739;28;20028;-74
2021/12/09 08:38:12;;;;;;;19.02;7.57;;;4.70;99.90;;;;;;5079991;28;20056;-74
2021/12/09 08:40:39;;;;;;;24.98;7.93;;;5.10;99.90;;;;;;5083856;28;20121;-74
2021/12/09 08:43:04;;;;;;;24.50;7.93;;;5.20;99.90;;;;;;5096048;28;20097;-75
2021/12/09 08:45:30;;;;;;;19.00;7.10;;;5.40;99.90;;;;;;5087702;28;20499;-75
2021/12/09 08:47:56;;;;;;;25.60;9.05;;;5.70;99.90;;;;;;5084489;28;20028;-75
2021/12/09 08:50:24;;;;;;;27.75;9.80;;;5.60;99.90;;;;;;5073661;28;20108;-75
2021/12/09 08:52:52;;;;;;;30.65;8.77;;;5.90;99.90;;;;;;5075346;28;20017;-75
2021/12/09 08:55:19;;;;;;;23.10;9.68;;;5.90;99.90;;;;;;5077000;28;20484;-75
2021/12/09 08:57:46;;;;;;;25.58;9.57;;;5.70;99.90;;;;;;5078782;28;20427;-75
2021/12/09 09:00:16;;;;;;;30.08;9.45;;;5.50;99.90;;;;;;5092651;28;20028;-75
2021/12/09 09:02:43;;;;;;;22.75;8.25;;;5.50;99.90;;;;;;5093988;28;20028;-75
2021/12/09 09:05:11;;;;;;;22.33;8.85;;;5.50;99.90;;;;;;5079850;28;20112;-75
2021/12/09 09:07:38;;;;;;;18.27;7.18;;;5.30;99.90;;;;;;5056873;28;20021;-75
2021/12/09 09:10:04;;;;;;;20.15;5.82;;;5.30;99.90;;;;;;5093036;28;20021;-75
2021/12/09 09:12:30;;;;;;;17.13;6.13;;;5.40;99.90;;;;;;5077407;28;20016;-75
2021/12/09 09:14:56;;;;;;;17.60;5.80;;;5.50;99.90;;;;;;5076222;28;20082;-75
2021/12/09 09:17:21;;;;;;;15.25;5.85;;;5.70;99.90;;;;;;5075087;28;20048;-75
2021/12/09 09:19:47;;;;;;;19.80;6.78;;;6.00;99.90;;;;;;5090510;28;20063;-75
2021/12/09 09:22:13;;;;;;;19.55;6.35;;;6.30;99.90;;;;;;5062588;28;20073;-75
2021/12/09 09:24:40;;;;;;;19.02;6.97;;;6.50;99.90;;;;;;5081037;28;20036;-75
2021/12/09 09:27:06;;;;;;;15.50;6.65;;;6.70;99.90;;;;;;5089862;28;20062;-75
2021/12/09 09:29:34;;;;;;;17.02;6.03;;;7.20;99.90;;;;;;5072787;28;20044;-75
2021/12/09 09:32:00;;;;;;;19.85;7.47;;;7.30;99.90;;;;;;5074517;28;20397;-75
2021/12/09 09:34:25;;;;;;;21.30;6.72;;;7.40;99.90;;;;;;5075990;28;20028;-73
2021/12/09 09:36:51;;;;;;;24.50;6.80;;;7.50;99.90;;;;;;5074406;28;20036;-69
2021/12/09 09:39:17;;;;;;;16.02;5.88;;;7.50;99.90;;;;;;5081930;28;20032;-69
2021/12/09 09:41:54;;;;;;;16.92;7.05;;;7.30;99.90;;;;;;5084371;28;20093;-69
2021/12/09 09:44:27;;;;;;;15.57;6.22;;;7.60;99.90;;;;;;5081879;28;20028;-70
2021/12/09 09:46:56;;;;;;;18.83;7.07;;;7.50;99.90;;;;;;5094890;28;20027;-68
2021/12/09 09:49:22;;;;;;;16.58;6.00;;;7.40;99.90;;;;;;5085798;28;20035;-69
2021/12/09 09:51:47;;;;;;;17.98;5.78;;;7.70;99.90;;;;;;5082104;28;20028;-69
2021/12/09 09:54:13;;;;;;;22.95;6.20;;;8.00;99.90;;;;;;5071981;28;20032;-69
2021/12/09 09:56:42;;;;;;;19.10;6.50;;;8.00;99.90;;;;;;5072783;28;20032;-69
2021/12/09 09:59:09;;;;;;;17.42;5.70;;;8.30;99.90;;;;;;5072948;28;20534;-69
2021/12/09 10:01:37;;;;;;;18.30;6.13;;;8.10;99.90;;;;;;5073134;28;20032;-69
2021/12/09 10:04:15;;;;;;;16.45;5.25;;;8.10;99.90;;;;;;5075053;28;20024;-70
2021/12/09 10:06:43;;;;;;;14.65;5.25;;;8.10;99.90;;;;;;5080582;28;20388;-69
2021/12/09 10:09:11;;;;;;;15.80;5.40;;;8.30;99.90;;;;;;5073072;28;20040;-70
2021/12/09 10:11:37;;;;;;;12.57;5.20;;;8.30;99.90;;;;;;5074430;28;20035;-69
2021/12/09 10:14:22;;;;;;;16.90;5.97;;;8.40;99.90;;;;;;5075990;28;20025;-69
2021/12/09 10:17:04;;;;;;;12.27;5.05;;;8.30;99.90;;;;;;5093743;28;20158;-70
2021/12/09 10:19:30;;;;;;;11.65;4.38;;;8.30;99.90;;;;;;5087379;28;20032;-69
2021/12/09 10:22:06;;;;;;;13.75;6.32;;;7.60;99.90;;;;;;5091355;28;20024;-69
2021/12/09 10:24:32;;;;;;;14.13;4.80;;;8.10;99.90;;;;;;5083966;28;20035;-69
2021/12/09 10:26:58;;;;;;;15.63;5.95;;;8.20;99.90;;;;;;5064282;28;20111;-69
2021/12/09 10:29:30;;;;;;;18.98;5.28;;;8.30;99.90;;;;;;5093486;28;20107;-69
2021/12/09 10:32:01;;;;;;;17.65;4.72;;;8.60;99.90;;;;;;5093648;28;20027;-69
2021/12/09 10:34:35;;;;;;;17.65;5.13;;;8.40;99.90;;;;;;5093485;28;20016;-69
2021/12/09 10:40:00;;;;;;;16.52;4.43;;;8.10;99.90;;;;;;5112006;27;20380;-69
2021/12/09 10:42:32;;;;;;;15.15;5.18;;;8.70;99.90;;;;;;5110237;28;20099;-69
2021/12/09 10:45:20;;;;;;;16.73;5.63;;;8.40;99.90;;;;;;5109648;28;20474;-69
2021/12/09 10:47:53;;;;;;;13.90;5.15;;;8.60;99.90;;;;;;5092611;28;20111;-69
2021/12/09 10:50:39;;;;;;;;;;;8.60;99.90;;;;;;5109643;28;20111;-69
2021/12/09 10:53:32;;;;;;;18.77;5.07;;;8.40;99.90;;;;;;5110599;28;20418;-69
2021/12/09 10:56:00;;;;;;;14.07;5.10;;;8.00;99.90;;;;;;5095606;28;20027;-69
2021/12/09 10:58:28;;;;;;;38.63;15.30;;;7.30;99.90;;;;;;5092685;28;20059;-69
2021/12/09 11:01:07;;;;;;;25.88;11.18;;;7.10;99.90;;;;;;5109193;28;20043;-68
2021/12/09 11:03:43;;;;;;;24.23;8.68;;;6.70;99.90;;;;;;5091635;28;20027;-69
2021/12/09 11:06:14;;;;;;;16.98;7.05;;;6.70;99.90;;;;;;5108173;28;20027;-68
2021/12/09 11:08:46;;;;;;;15.45;5.97;;;6.60;99.90;;;;;;5109557;28;20030;-67
2021/12/09 11:11:15;;;;;;;18.40;8.85;;;6.20;99.90;;;;;;5109369;28;20016;-68
2021/12/09 11:13:48;;;;;;;17.45;5.50;;;6.30;99.90;;;;;;5092074;28;20032;-68
2021/12/09 11:16:23;;;;;;;14.20;5.47;;;6.20;99.90;;;;;;5109747;28;20368;-68
2021/12/09 11:18:55;;;;;;;14.30;5.03;;;6.20;99.90;;;;;;5091700;28;20035;-68
2021/12/09 11:21:31;;;;;;;15.32;5.55;;;6.20;99.90;;;;;;5108870;28;20472;-70
2021/12/09 11:24:03;;;;;;;12.70;5.22;;;6.10;99.90;;;;;;5092750;28;20119;-69
2021/12/09 11:26:41;;;;;;;13.52;4.18;;;5.90;99.90;;;;;;5110283;28;20047;-69
2021/12/09 11:29:10;;;;;;;15.00;4.45;;;5.90;99.90;;;;;;5108824;28;20103;-69
2021/12/09 11:31:43;;;;;;;13.85;4.20;;;5.80;99.90;;;;;;5110464;28;20028;-69
2021/12/09 11:34:14;;;;;;;16.80;4.33;;;5.80;99.90;;;;;;5110048;28;20380;-69
2021/12/09 11:36:44;;;;;;;13.05;4.55;;;5.80;99.90;;;;;;5108547;28;20028;-68
2021/12/09 11:39:18;;;;;;;14.27;5.82;;;5.80;99.90;;;;;;5108354;28;20040;-68
2021/12/09 11:41:44;;;;;;;13.40;5.32;;;5.70;99.90;;;;;;5092827;28;20024;-69
2021/12/09 11:44:11;;;;;;;14.40;5.30;;;5.70;99.90;;;;;;5109580;28;20101;-68
2021/12/09 11:46:40;;;;;;;12.65;4.47;;;5.70;99.90;;;;;;5108523;28;20023;-68
2021/12/09 11:49:07;;;;;;;11.65;4.85;;;5.70;99.90;;;;;;5106108;28;20024;-68
2021/12/09 11:51:33;;;;;;;14.90;4.45;;;5.60;99.90;;;;;;5095198;28;20028;-68
2021/12/09 11:54:01;;;;;;;16.65;4.50;;;5.70;99.90;;;;;;5095374;28;20031;-68
2021/12/09 11:56:40;;;;;;;12.05;4.28;;;5.80;99.90;;;;;;5094842;28;20358;-69
2021/12/09 12:07:04;;;;;;;20.55;4.18;;;5.80;99.90;;;;;;5077399;28;20090;-69
2021/12/09 12:14:06;;;;;;;9.88;4.15;;;5.70;99.90;;;;;;5114572;27;20742;-69
2021/12/09 12:17:04;;;;;;;13.38;4.20;;;5.60;99.90;;;;;;5112354;27;20045;-69
2021/12/09 12:20:16;;;;;;;14.30;4.80;;;5.50;99.90;;;;;;5109698;28;20384;-69
2021/12/09 12:23:10;;;;;;;18.60;5.65;;;5.50;99.90;;;;;;5110927;28;20465;-69
2021/12/09 12:26:07;;;;;;;11.85;3.92;;;5.60;99.90;;;;;;5122993;28;20024;-69
2021/12/09 12:29:24;;;;;;;6.97;3.35;;;5.50;99.90;;;;;;5113635;28;20024;-69
2021/12/09 12:35:11;;;;;;;11.98;4.57;;;5.50;99.90;;;;;;5101778;28;20062;-69
2021/12/09 12:40:41;;;;;;;12.73;4.90;;;5.50;99.90;;;;;;5071368;28;20814;-68
2021/12/09 12:43:14;;;;;;;13.85;5.47;;;5.50;99.90;;;;;;5056345;28;20071;-68
2021/12/09 12:48:51;;;;;;;17.88;5.80;;;5.50;99.90;;;;;;5104660;27;20327;-68
2021/12/09 12:51:45;;;;;;;13.55;4.78;;;5.50;99.90;;;;;;5089894;28;20070;-68
2021/12/09 12:56:56;;;;;;;12.02;5.18;;;5.60;99.90;;;;;;5071187;28;20725;-69
2021/12/09 12:59:33;;;;;;;13.93;5.95;;;5.60;99.90;;;;;;5069931;28;20032;-69
2021/12/09 13:02:13;;;;;;;17.98;6.80;;;5.50;99.90;;;;;;5069631;28;20078;-69
2021/12/09 13:05:14;;;;;;;13.73;6.05;;;5.60;99.90;;;;;;5071052;28;20028;-69
2021/12/09 13:08:07;;;;;;;17.10;6.80;;;5.60;99.90;;;;;;5067931;28;20367;-69
2021/12/09 13:13:21;;;;;;;20.20;7.07;;;5.70;99.90;;;;;;5070350;28;20029;-69
2021/12/09 13:16:16;;;;;;;15.48;7.30;;;5.60;99.90;;;;;;5071938;28;20061;-69
2021/12/09 13:18:53;;;;;;;16.60;7.88;;;5.60;99.90;;;;;;5089135;28;20081;-69
2021/12/09 13:21:44;;;;;;;13.98;8.10;;;5.60;99.90;;;;;;5087483;28;20017;-69
2021/12/09 13:24:37;;;;;;;19.27;7.25;;;5.60;99.90;;;;;;5075754;28;20024;-68
2021/12/09 13:27:32;;;;;;;14.60;7.57;;;5.60;99.90;;;;;;5090693;28;20107;-68